createdAt,value
2023-04-09T00:02:21.874Z,6.20
2023-04-09T00:04:48.976Z,6.20
2023-04-09T00:07:16.348Z,6.20
2023-04-09T00:09:43.353Z,6.20
2023-04-09T00:12:10.696Z,6.20
2023-04-09T00:14:37.800Z,6.20
2023-04-09T00:17:04.817Z,6.20
2023-04-09T00:19:31.860Z,6.10
2023-04-09T00:22:01.000Z,6.10
2023-04-09T00:24:28.002Z,6.10
2023-04-09T00:26:54.904Z,6.00
2023-04-09T00:29:21.908Z,6.00
2023-04-09T00:31:48.950Z,5.90
2023-04-09T00:34:16.088Z,5.90
2023-04-09T00:36:42.983Z,5.90
2023-04-09T00:39:10.044Z,5.90
2023-04-09T00:41:37.145Z,5.90
2023-04-09T00:44:04.367Z,5.80
2023-04-09T00:46:31.735Z,5.70
2023-04-09T00:48:59.422Z,5.60
2023-04-09T00:51:26.870Z,5.60
2023-04-09T00:53:54.719Z,5.60
2023-04-09T00:56:22.446Z,5.60
2023-04-09T00:58:49.905Z,5.50
2023-04-09T01:01:17.058Z,5.60
2023-04-09T01:03:44.095Z,5.60
2023-04-09T01:06:15.735Z,5.60
2023-04-09T01:08:42.778Z,5.60
2023-04-09T01:11:28.619Z,5.50
2023-04-09T01:14:00.946Z,5.50
2023-04-09T01:16:29.447Z,5.50
2023-04-09T01:19:02.283Z,5.50
2023-04-09T01:21:32.881Z,5.50
2023-04-09T01:24:18.597Z,5.50
2023-04-09T01:27:03.229Z,5.50
2023-04-09T01:29:53.711Z,5.40
2023-04-09T01:32:21.432Z,5.40
2023-04-09T01:34:48.725Z,5.40
2023-04-09T01:37:16.391Z,5.40
2023-04-09T01:39:43.493Z,5.40
2023-04-09T01:42:12.336Z,5.40
2023-04-09T01:44:40.188Z,5.40
2023-04-09T01:47:08.906Z,5.40
2023-04-09T01:49:36.468Z,5.40
2023-04-09T01:52:03.629Z,5.40
2023-04-09T01:54:30.598Z,5.50
2023-04-09T01:56:57.885Z,5.40
2023-04-09T01:59:25.043Z,5.40
2023-04-09T02:01:57.321Z,5.50
2023-04-09T02:04:31.813Z,5.40
2023-04-09T02:07:06.378Z,5.40
2023-04-09T02:09:36.543Z,5.50
2023-04-09T02:12:05.912Z,5.50
2023-04-09T02:14:33.546Z,5.50
2023-04-09T02:17:01.329Z,5.50
2023-04-09T02:19:45.145Z,5.60
2023-04-09T02:22:14.000Z,5.60
2023-04-09T02:24:41.569Z,5.60
2023-04-09T02:27:08.710Z,5.60
2023-04-09T02:29:35.994Z,5.60
2023-04-09T02:32:03.047Z,5.70
2023-04-09T02:34:30.153Z,5.70
2023-04-09T02:36:57.107Z,5.70
2023-04-09T02:39:24.093Z,5.80
2023-04-09T02:41:51.021Z,5.80
2023-04-09T02:44:18.011Z,5.80
2023-04-09T02:46:47.416Z,5.80
2023-04-09T02:49:14.799Z,5.70
2023-04-09T02:51:41.871Z,5.70
2023-04-09T02:54:08.867Z,5.70
2023-04-09T02:56:36.137Z,5.70
2023-04-09T02:59:03.138Z,5.70
2023-04-09T03:01:30.370Z,5.60
2023-04-09T03:03:57.596Z,5.60
2023-04-09T03:06:24.846Z,5.50
2023-04-09T03:08:52.001Z,5.50
2023-04-09T03:11:19.185Z,5.50
2023-04-09T03:13:46.634Z,5.40
2023-04-09T03:16:15.025Z,5.50
2023-04-09T03:18:42.145Z,5.50
2023-04-09T03:21:09.631Z,5.40
2023-04-09T03:23:40.946Z,5.40
2023-04-09T03:26:08.473Z,5.40
2023-04-09T03:28:43.198Z,5.40
2023-04-09T03:31:10.562Z,5.40
2023-04-09T03:33:40.420Z,5.30
2023-04-09T03:36:09.324Z,5.20
2023-04-09T03:38:55.946Z,5.20
2023-04-09T03:41:31.288Z,5.10
2023-04-09T03:44:01.785Z,5.10
2023-04-09T03:46:34.138Z,5.00
2023-04-09T03:49:01.907Z,5.00
2023-04-09T03:51:42.288Z,4.90
2023-04-09T03:54:09.503Z,4.90
2023-04-09T03:56:36.766Z,5.00
2023-04-09T03:59:07.509Z,5.00
2023-04-09T04:01:40.874Z,5.00
2023-04-09T04:04:08.109Z,5.00
2023-04-09T04:06:40.375Z,5.00
2023-04-09T04:09:33.433Z,5.10
2023-04-09T04:12:05.389Z,5.10
2023-04-09T04:14:52.049Z,5.20
2023-04-09T04:17:25.928Z,5.20
2023-04-09T04:19:54.562Z,5.20
2023-04-09T04:22:24.901Z,5.30
2023-04-09T04:24:56.577Z,5.40
2023-04-09T04:27:25.158Z,5.40
2023-04-09T04:29:52.892Z,5.40
2023-04-09T04:32:37.780Z,5.50
2023-04-09T04:35:09.429Z,5.50
2023-04-09T04:37:37.406Z,5.50
2023-04-09T04:40:05.656Z,5.60
2023-04-09T04:42:37.123Z,5.70
2023-04-09T04:45:10.663Z,5.70
2023-04-09T04:47:43.588Z,5.70
2023-04-09T04:50:10.799Z,5.80
2023-04-09T04:52:51.676Z,5.90
2023-04-09T04:55:20.808Z,5.90
2023-04-09T04:57:50.559Z,6.00
2023-04-09T05:00:19.003Z,6.00
2023-04-09T05:02:47.155Z,6.10
2023-04-09T05:05:21.769Z,6.20
2023-04-09T05:07:53.293Z,6.20
2023-04-09T05:10:21.648Z,6.30
2023-04-09T05:12:48.651Z,6.30
2023-04-09T05:15:24.832Z,6.30
2023-04-09T05:17:51.942Z,6.30
2023-04-09T05:20:19.074Z,6.40
2023-04-09T05:22:52.492Z,6.50
2023-04-09T05:25:27.669Z,6.60
2023-04-09T05:27:56.040Z,6.70
2023-04-09T05:30:25.529Z,6.70
2023-04-09T05:32:53.760Z,6.80
2023-04-09T05:35:21.890Z,6.90
2023-04-09T05:37:49.336Z,7.00
2023-04-09T05:40:16.469Z,7.10
2023-04-09T05:42:43.871Z,7.20
2023-04-09T05:45:17.114Z,7.20
2023-04-09T05:47:51.811Z,7.30
2023-04-09T05:50:21.874Z,7.40
2023-04-09T05:52:52.377Z,7.50
2023-04-09T05:55:20.539Z,7.70
2023-04-09T05:57:55.253Z,7.70
2023-04-09T06:00:22.465Z,7.80
2023-04-09T06:02:50.646Z,7.90
2023-04-09T06:05:17.788Z,8.00
2023-04-09T06:07:46.209Z,8.10
2023-04-09T06:10:14.344Z,8.20
2023-04-09T06:12:44.273Z,8.30
2023-04-09T06:15:11.523Z,8.40
2023-04-09T06:17:38.651Z,8.50
2023-04-09T06:20:06.323Z,8.60
2023-04-09T06:22:33.255Z,8.60
2023-04-09T06:25:00.426Z,8.70
2023-04-09T06:27:27.349Z,8.80
2023-04-09T06:29:54.302Z,8.80
2023-04-09T06:32:21.347Z,8.90
2023-04-09T06:34:48.530Z,8.90
2023-04-09T06:37:15.954Z,9.10
2023-04-09T06:39:50.685Z,9.10
2023-04-09T06:42:27.134Z,9.20
2023-04-09T06:45:17.075Z,9.30
2023-04-09T06:47:44.468Z,9.40
2023-04-09T06:50:11.610Z,9.60
2023-04-09T06:52:38.599Z,9.70
2023-04-09T06:55:06.430Z,9.80
2023-04-09T06:57:33.366Z,9.90
2023-04-09T07:00:00.438Z,10.10
2023-04-09T07:36:57.637Z,22.00
2023-04-09T07:39:24.664Z,21.40
2023-04-09T07:41:51.895Z,21.10
2023-04-09T07:44:18.836Z,21.70
2023-04-09T07:46:46.209Z,22.20
2023-04-09T07:49:13.383Z,22.00
2023-04-09T07:51:40.814Z,21.60
2023-04-09T07:54:09.026Z,21.60
2023-04-09T07:56:36.426Z,21.50
2023-04-09T07:59:03.391Z,21.50
2023-04-09T08:01:31.484Z,21.60
2023-04-09T08:03:58.661Z,21.90
2023-04-09T08:11:25.390Z,25.20
2023-04-09T08:13:53.042Z,26.20
2023-04-09T08:16:21.466Z,27.10
2023-04-09T08:21:16.487Z,27.40
2023-04-09T08:23:43.593Z,27.50
2023-04-09T08:26:10.997Z,26.70
2023-04-09T08:28:37.951Z,25.20
2023-04-09T08:31:05.280Z,23.80
2023-04-09T08:33:32.192Z,22.80
2023-04-09T08:36:00.789Z,22.20
2023-04-09T08:38:29.674Z,21.70
2023-04-09T08:40:56.967Z,21.60
2023-04-09T08:43:29.947Z,21.30
2023-04-09T08:46:04.566Z,21.20
2023-04-09T08:48:32.285Z,21.20
2023-04-09T08:50:59.722Z,21.50
2023-04-09T08:53:27.605Z,22.10
2023-04-09T08:55:54.832Z,22.50
2023-04-09T08:58:21.985Z,22.80
2023-04-09T09:00:49.333Z,23.10
2023-04-09T09:15:35.719Z,26.40
2023-04-09T09:18:03.186Z,26.20
2023-04-09T09:20:30.555Z,25.90
2023-04-09T09:22:57.764Z,25.60
2023-04-09T09:25:26.434Z,25.50
2023-04-09T09:27:54.593Z,25.50
2023-04-09T09:30:22.625Z,25.60
2023-04-09T09:32:52.241Z,25.80
2023-04-09T09:35:19.579Z,26.20
2023-04-09T09:37:46.592Z,26.50
2023-04-09T09:40:26.788Z,26.90
2023-04-09T09:42:57.987Z,27.20
2023-04-09T09:45:25.928Z,27.40
2023-04-09T09:47:54.232Z,27.80
2023-04-09T09:50:24.205Z,28.00
2023-04-09T09:52:52.730Z,28.00
2023-04-09T09:55:20.578Z,28.00
2023-04-09T09:57:48.614Z,28.20
2023-04-09T10:00:16.030Z,28.20
2023-04-09T10:02:54.526Z,28.20
2023-04-09T10:05:25.268Z,28.30
2023-04-09T10:07:52.535Z,28.30
2023-04-09T10:10:19.640Z,28.10
2023-04-09T10:12:47.468Z,27.70
2023-04-09T10:15:14.658Z,27.60
2023-04-09T10:17:41.573Z,27.60
2023-04-09T10:20:14.633Z,27.50
2023-04-09T10:22:43.135Z,27.40
2023-04-09T10:25:10.290Z,27.00
2023-04-09T10:27:37.476Z,26.80
2023-04-09T10:30:07.594Z,26.50
2023-04-09T10:32:38.027Z,26.30
2023-04-09T10:35:05.331Z,26.30
2023-04-09T10:37:32.617Z,26.50
2023-04-09T10:40:00.177Z,26.70
2023-04-09T10:42:30.551Z,26.90
2023-04-09T10:45:11.318Z,26.90
2023-04-09T10:47:40.125Z,26.70
2023-04-09T10:50:17.417Z,26.80
2023-04-09T10:52:46.177Z,26.60
2023-04-09T10:55:31.672Z,26.40
2023-04-09T10:57:58.979Z,26.30
2023-04-09T11:00:26.157Z,26.20
2023-04-09T11:02:53.419Z,26.30
2023-04-09T11:05:23.289Z,26.30
2023-04-09T11:08:10.742Z,26.30
2023-04-09T11:10:44.092Z,26.00
2023-04-09T11:13:17.412Z,26.00
2023-04-09T11:15:45.606Z,26.30
2023-04-09T11:18:29.053Z,26.30
2023-04-09T11:20:56.877Z,26.50
2023-04-09T11:23:24.983Z,26.70
2023-04-09T11:25:52.661Z,26.70
2023-04-09T11:28:20.219Z,26.80
2023-04-09T11:30:48.051Z,26.70
2023-04-09T11:33:17.509Z,26.40
2023-04-09T11:35:46.670Z,26.40
2023-04-09T11:38:13.869Z,26.10
2023-04-09T11:40:48.242Z,25.90
2023-04-09T11:43:16.786Z,25.40
2023-04-09T11:45:44.479Z,25.20
2023-04-09T11:48:12.288Z,25.30
2023-04-09T11:50:39.413Z,25.00
2023-04-09T11:53:19.443Z,24.60
2023-04-09T11:55:53.469Z,24.50
2023-04-09T11:58:24.400Z,24.60
2023-04-09T12:01:01.377Z,24.80
2023-04-09T12:03:30.074Z,24.60
2023-04-09T12:06:00.128Z,24.40
2023-04-09T12:08:27.762Z,24.30
2023-04-09T12:10:54.805Z,24.60
2023-04-09T12:13:21.847Z,25.00
2023-04-09T12:15:49.984Z,24.90
2023-04-09T12:18:17.300Z,24.80
2023-04-09T12:20:44.890Z,25.00
2023-04-09T12:23:12.650Z,24.90
2023-04-09T12:25:40.944Z,24.90
2023-04-09T12:28:08.904Z,24.80
2023-04-09T12:30:36.310Z,25.00
2023-04-09T12:33:04.410Z,24.90
2023-04-09T12:35:32.020Z,24.80
2023-04-09T12:38:02.109Z,24.60
2023-04-09T12:40:29.229Z,24.10
2023-04-09T12:42:56.605Z,23.90
2023-04-09T12:45:23.676Z,24.00
2023-04-09T12:47:51.286Z,24.10
2023-04-09T12:50:18.440Z,23.80
2023-04-09T12:52:46.642Z,23.40
2023-04-09T12:55:16.299Z,22.90
2023-04-09T12:57:45.370Z,22.60
2023-04-09T13:00:12.950Z,22.10
2023-04-09T13:02:40.386Z,21.30
2023-04-09T13:05:07.800Z,20.30
2023-04-09T13:07:34.863Z,19.50
2023-04-09T13:10:01.878Z,19.10
2023-04-09T13:12:29.007Z,18.70
2023-04-09T13:14:59.437Z,18.40
2023-04-09T13:17:26.478Z,18.10
2023-04-09T13:22:21.301Z,17.50
2023-04-09T13:24:48.237Z,17.20
2023-04-09T13:27:16.580Z,16.90
2023-04-09T13:29:43.601Z,16.60
2023-04-09T13:32:11.375Z,16.40
2023-04-09T13:34:39.023Z,16.20
2023-04-09T13:37:06.395Z,16.00
2023-04-09T13:39:33.407Z,15.80
2023-04-09T13:42:03.677Z,15.50
2023-04-09T13:44:35.330Z,15.40
2023-04-09T13:47:02.745Z,15.30
2023-04-09T13:49:30.942Z,15.20
2023-04-09T13:51:59.559Z,15.00
2023-04-09T13:54:26.470Z,14.90
2023-04-09T13:56:53.510Z,14.80
2023-04-09T13:59:20.570Z,14.80
2023-04-09T14:01:47.905Z,14.90
2023-04-09T14:04:15.345Z,14.90
2023-04-09T14:06:43.105Z,14.90
2023-04-09T14:09:11.076Z,14.80
2023-04-09T14:11:38.488Z,14.80
2023-04-09T14:14:05.627Z,14.70
2023-04-09T14:16:33.074Z,14.60
2023-04-09T14:19:00.242Z,14.60
2023-04-09T14:21:29.397Z,14.60
2023-04-09T14:23:56.707Z,14.70
2023-04-09T14:26:24.332Z,14.60
2023-04-09T14:28:52.006Z,14.30
2023-04-09T14:31:22.943Z,14.20
2023-04-09T14:33:50.077Z,14.20
2023-04-09T14:36:17.989Z,14.20
2023-04-09T14:38:45.080Z,14.20
2023-04-09T14:41:12.277Z,14.20
2023-04-09T14:43:39.945Z,14.20
2023-04-09T14:46:11.847Z,14.20
2023-04-09T14:48:42.445Z,14.30
2023-04-09T14:51:10.289Z,14.30
2023-04-09T14:53:37.360Z,14.20
2023-04-09T14:56:04.421Z,14.10
2023-04-09T14:58:31.610Z,13.90
2023-04-09T15:00:58.660Z,13.80
2023-04-09T15:03:26.186Z,13.80
2023-04-09T15:05:53.546Z,13.60
2023-04-09T15:08:20.745Z,13.60
2023-04-09T15:10:47.654Z,13.50
2023-04-09T15:13:14.615Z,13.60
2023-04-09T15:15:43.379Z,13.40
2023-04-09T15:18:10.984Z,13.20
2023-04-09T15:20:38.629Z,13.10
2023-04-09T15:23:05.684Z,13.00
2023-04-09T15:25:32.857Z,12.90
2023-04-09T15:27:59.986Z,12.90
2023-04-09T15:30:27.117Z,12.80
2023-04-09T15:32:54.388Z,12.70
2023-04-09T15:35:25.463Z,12.70
2023-04-09T15:37:52.522Z,12.70
2023-04-09T15:40:20.151Z,12.60
2023-04-09T15:42:47.230Z,12.60
2023-04-09T15:45:17.661Z,12.50
2023-04-09T15:47:45.081Z,12.50
2023-04-09T15:50:12.448Z,12.50
2023-04-09T15:52:39.643Z,12.50
2023-04-09T15:55:06.805Z,12.50
2023-04-09T16:00:01.334Z,12.40
2023-04-09T16:02:28.536Z,12.30
2023-04-09T16:04:55.871Z,12.40
2023-04-09T16:07:23.534Z,12.40
2023-04-09T16:09:50.545Z,12.30
2023-04-09T16:12:17.474Z,12.30
2023-04-09T16:14:44.785Z,12.30
2023-04-09T16:17:14.157Z,12.20
2023-04-09T16:19:42.227Z,12.20
2023-04-09T16:22:09.544Z,12.10
2023-04-09T16:24:36.519Z,12.10
2023-04-09T16:27:03.838Z,12.00
2023-04-09T16:29:30.834Z,11.90
2023-04-09T16:32:00.250Z,11.80
2023-04-09T16:34:27.295Z,11.80
2023-04-09T16:36:54.228Z,11.70
2023-04-09T16:39:21.324Z,11.60
2023-04-09T16:41:49.430Z,11.60
2023-04-09T16:44:16.892Z,11.60
2023-04-09T16:46:44.185Z,11.50
2023-04-09T16:49:11.339Z,11.50
2023-04-09T16:51:38.432Z,11.40
2023-04-09T16:54:05.676Z,11.50
2023-04-09T16:56:32.949Z,11.40
2023-04-09T16:59:00.134Z,11.30
2023-04-09T17:01:27.981Z,11.30
2023-04-09T17:03:59.711Z,11.20
2023-04-09T17:06:27.577Z,11.10
2023-04-09T17:08:54.655Z,11.00
2023-04-09T17:11:23.761Z,10.80
2023-04-09T17:13:50.667Z,10.70
2023-04-09T17:16:18.508Z,10.50
2023-04-09T17:18:45.592Z,10.40
2023-04-09T17:21:12.693Z,10.40
2023-04-09T17:23:39.599Z,10.30
2023-04-09T17:26:06.892Z,10.20
2023-04-09T17:28:35.183Z,10.20
2023-04-09T17:31:02.257Z,10.10
2023-04-09T17:33:29.204Z,10.10
2023-04-09T17:35:57.766Z,10.00
2023-04-09T17:38:27.196Z,9.80
2023-04-09T17:40:54.414Z,9.80
2023-04-09T17:43:21.415Z,9.70
2023-04-09T17:45:49.368Z,9.60
2023-04-09T17:48:16.820Z,9.50
2023-04-09T17:50:43.993Z,9.40
2023-04-09T17:53:20.265Z,9.30
2023-04-09T17:55:47.861Z,9.30
2023-04-09T17:58:15.428Z,9.20
2023-04-09T18:00:43.477Z,9.20
2023-04-09T18:03:15.958Z,9.20
2023-04-09T18:05:43.390Z,9.10
2023-04-09T18:08:14.008Z,9.10
2023-04-09T18:10:41.351Z,9.10
2023-04-09T18:13:08.296Z,9.00
2023-04-09T18:15:35.379Z,9.00
2023-04-09T18:18:02.499Z,8.90
2023-04-09T18:20:30.195Z,8.90
2023-04-09T18:22:57.289Z,8.90
2023-04-09T18:25:24.332Z,8.90
2023-04-09T18:27:51.395Z,8.90
2023-04-09T18:30:18.535Z,8.90
2023-04-09T18:32:45.667Z,8.90
2023-04-09T18:35:12.609Z,8.90
2023-04-09T18:37:39.725Z,8.90
2023-04-09T18:40:12.303Z,8.90
2023-04-09T18:42:39.375Z,8.90
2023-04-09T18:45:07.776Z,8.90
2023-04-09T18:47:34.831Z,8.90
2023-04-09T18:50:02.557Z,8.90
2023-04-09T18:52:29.557Z,8.90
2023-04-09T18:54:56.653Z,8.90
2023-04-09T18:57:23.678Z,8.90
2023-04-09T18:59:51.748Z,8.90
2023-04-09T19:02:18.920Z,8.90
2023-04-09T19:04:47.150Z,9.00
2023-04-09T19:07:14.407Z,9.00
2023-04-09T19:09:41.932Z,9.00
2023-04-09T19:12:09.031Z,9.00
2023-04-09T19:14:36.548Z,9.00
2023-04-09T19:17:03.676Z,9.00
2023-04-09T19:19:31.134Z,9.00
2023-04-09T19:21:58.639Z,9.00
2023-04-09T19:24:25.986Z,9.00
2023-04-09T19:26:53.641Z,8.90
2023-04-09T19:29:21.081Z,8.90
2023-04-09T19:31:48.072Z,8.90
2023-04-09T19:34:17.099Z,8.90
2023-04-09T19:36:44.313Z,8.80
2023-04-09T19:39:19.923Z,8.80
2023-04-09T19:41:46.877Z,8.70
2023-04-09T19:44:13.791Z,8.80
2023-04-09T19:46:41.111Z,8.70
2023-04-09T19:49:08.088Z,8.80
2023-04-09T19:51:35.067Z,8.70
2023-04-09T19:54:02.070Z,8.80
2023-04-09T19:56:29.140Z,8.70
2023-04-09T19:58:56.452Z,8.70
2023-04-09T20:01:23.424Z,8.70
2023-04-09T20:03:50.635Z,8.70
2023-04-09T20:06:18.311Z,8.70
2023-04-09T20:08:45.270Z,8.70
2023-04-09T20:11:18.747Z,8.70
2023-04-09T20:13:47.587Z,8.70
2023-04-09T20:16:15.041Z,8.70
2023-04-09T20:18:42.191Z,8.70
2023-04-09T20:21:09.347Z,8.70
2023-04-09T20:23:36.596Z,8.70
2023-04-09T20:26:03.704Z,8.70
2023-04-09T20:28:34.182Z,8.70
2023-04-09T20:31:04.328Z,8.80
2023-04-09T20:33:32.364Z,8.70
2023-04-09T20:35:59.614Z,8.70
2023-04-09T20:38:27.075Z,8.70
2023-04-09T20:40:54.017Z,8.70
2023-04-09T20:43:23.079Z,8.70
2023-04-09T20:45:50.057Z,8.70
2023-04-09T20:48:19.452Z,8.70
2023-04-09T20:50:46.830Z,8.60
2023-04-09T20:53:13.757Z,8.60
2023-04-09T20:55:40.813Z,8.50
2023-04-09T20:58:10.102Z,8.50
2023-04-09T21:00:37.118Z,8.50
2023-04-09T21:03:04.423Z,8.50
2023-04-09T21:05:31.525Z,8.40
2023-04-09T21:07:59.920Z,8.40
2023-04-09T21:10:26.911Z,8.40
2023-04-09T21:12:53.851Z,8.40
2023-04-09T21:15:20.815Z,8.30
2023-04-09T21:17:48.028Z,8.30
2023-04-09T21:20:16.835Z,8.30
2023-04-09T21:22:43.987Z,8.30
2023-04-09T21:25:12.175Z,8.20
2023-04-09T21:30:08.408Z,8.10
2023-04-09T21:32:35.539Z,8.10
2023-04-09T21:35:02.666Z,8.20
2023-04-09T21:37:32.079Z,8.10
2023-04-09T21:39:59.373Z,8.00
2023-04-09T21:42:26.566Z,8.10
2023-04-09T21:44:53.475Z,8.10
2023-04-09T21:47:20.434Z,8.10
2023-04-09T21:49:47.465Z,8.10
2023-04-09T21:52:15.026Z,8.10
2023-04-09T21:54:42.620Z,8.10
2023-04-09T21:57:12.734Z,8.00
2023-04-09T21:59:41.397Z,7.90
2023-04-09T22:02:08.762Z,7.80
2023-04-09T22:04:35.907Z,7.70
2023-04-09T22:07:03.408Z,7.70
2023-04-09T22:09:30.694Z,7.70
2023-04-09T22:11:58.645Z,7.70
2023-04-09T22:14:29.278Z,7.60
2023-04-09T22:17:01.730Z,7.60
2023-04-09T22:19:29.668Z,7.60
2023-04-09T22:21:58.901Z,7.40
2023-04-09T22:24:30.391Z,7.40
2023-04-09T22:26:59.070Z,7.40
2023-04-09T22:29:26.800Z,7.30
2023-04-09T22:31:54.432Z,7.30
2023-04-09T22:34:22.231Z,7.30
2023-04-09T22:36:49.694Z,7.20
2023-04-09T22:39:16.650Z,7.20
2023-04-09T22:41:43.739Z,7.10
2023-04-09T22:44:10.757Z,7.00
2023-04-09T22:46:37.861Z,7.00
2023-04-09T22:49:06.152Z,7.00
2023-04-09T22:51:34.929Z,7.00
2023-04-09T22:54:02.254Z,7.00
2023-04-09T22:56:33.674Z,7.00
2023-04-09T22:59:00.696Z,6.90
2023-04-09T23:01:27.972Z,6.80
2023-04-09T23:03:55.805Z,6.80
2023-04-09T23:06:23.112Z,6.80
2023-04-09T23:08:50.677Z,6.80
2023-04-09T23:11:17.933Z,6.80
2023-04-09T23:13:45.006Z,6.80
2023-04-09T23:16:12.297Z,6.80
2023-04-09T23:18:40.533Z,6.80
2023-04-09T23:21:08.169Z,6.70
2023-04-09T23:23:35.537Z,6.70
2023-04-09T23:26:02.862Z,6.70
2023-04-09T23:28:30.320Z,6.70
2023-04-09T23:30:57.395Z,6.70
2023-04-09T23:33:25.553Z,6.70
2023-04-09T23:35:52.622Z,6.70
2023-04-09T23:38:19.626Z,6.70
2023-04-09T23:40:47.516Z,6.60
2023-04-09T23:43:14.627Z,6.60
2023-04-09T23:45:41.668Z,6.60
2023-04-09T23:48:09.240Z,6.60
2023-04-09T23:50:39.802Z,6.60
2023-04-09T23:53:07.013Z,6.60
2023-04-09T23:55:37.989Z,6.60
2023-04-09T23:58:05.303Z,6.50
